sensor_id;sensor_type;location;lat;lon;timestamp;temperature;humidity
36774;DHT22;22730;51.980;5.934;2023-08-12T00:01:36;25.10;70.60
36774;DHT22;22730;51.980;5.934;2023-08-12T00:04:02;25.10;70.30
36774;DHT22;22730;51.980;5.934;2023-08-12T00:06:28;25.30;70.10
36774;DHT22;22730;51.980;5.934;2023-08-12T00:08:54;25.30;69.80
36774;DHT22;22730;51.980;5.934;2023-08-12T00:11:20;25.40;69.50
36774;DHT22;22730;51.980;5.934;2023-08-12T00:13:45;25.60;69.00
36774;DHT22;22730;51.980;5.934;2023-08-12T00:16:11;25.70;68.60
36774;DHT22;22730;51.980;5.934;2023-08-12T00:18:37;25.70;68.90
36774;DHT22;22730;51.980;5.934;2023-08-12T00:21:09;25.50;69.20
36774;DHT22;22730;51.980;5.934;2023-08-12T00:23:39;25.40;69.50
36774;DHT22;22730;51.980;5.934;2023-08-12T00:26:06;25.30;69.90
36774;DHT22;22730;51.980;5.934;2023-08-12T00:28:33;25.30;70.00
36774;DHT22;22730;51.980;5.934;2023-08-12T00:30:59;25.30;69.80
36774;DHT22;22730;51.980;5.934;2023-08-12T00:33:25;25.30;70.00
36774;DHT22;22730;51.980;5.934;2023-08-12T00:35:50;25.20;70.30
36774;DHT22;22730;51.980;5.934;2023-08-12T00:38:16;25.10;70.50
36774;DHT22;22730;51.980;5.934;2023-08-12T00:40:42;25.10;70.70
36774;DHT22;22730;51.980;5.934;2023-08-12T00:43:08;25.10;70.60
36774;DHT22;22730;51.980;5.934;2023-08-12T00:45:35;25.10;70.60
36774;DHT22;22730;51.980;5.934;2023-08-12T00:48:02;25.00;70.70
36774;DHT22;22730;51.980;5.934;2023-08-12T00:50:28;24.90;71.10
36774;DHT22;22730;51.980;5.934;2023-08-12T00:52:56;24.90;71.40
36774;DHT22;22730;51.980;5.934;2023-08-12T00:55:22;24.70;71.70
36774;DHT22;22730;51.980;5.934;2023-08-12T00:57:48;24.70;71.70
36774;DHT22;22730;51.980;5.934;2023-08-12T01:00:14;24.70;71.60
36774;DHT22;22730;51.980;5.934;2023-08-12T01:02:44;24.80;71.30
36774;DHT22;22730;51.980;5.934;2023-08-12T01:05:14;24.80;71.40
36774;DHT22;22730;51.980;5.934;2023-08-12T01:07:39;24.60;72.20
36774;DHT22;22730;51.980;5.934;2023-08-12T01:10:05;24.40;73.00
36774;DHT22;22730;51.980;5.934;2023-08-12T01:12:44;24.30;73.20
36774;DHT22;22730;51.980;5.934;2023-08-12T01:15:18;24.30;73.40
36774;DHT22;22730;51.980;5.934;2023-08-12T01:17:49;24.30;73.30
36774;DHT22;22730;51.980;5.934;2023-08-12T01:20:20;24.30;73.20
36774;DHT22;22730;51.980;5.934;2023-08-12T01:23:15;24.30;73.30
36774;DHT22;22730;51.980;5.934;2023-08-12T01:25:41;24.40;72.80
36774;DHT22;22730;51.980;5.934;2023-08-12T01:28:07;24.50;72.70
36774;DHT22;22730;51.980;5.934;2023-08-12T01:30:52;24.60;72.60
36774;DHT22;22730;51.980;5.934;2023-08-12T01:33:46;24.60;72.50
36774;DHT22;22730;51.980;5.934;2023-08-12T01:36:19;24.50;72.70
36774;DHT22;22730;51.980;5.934;2023-08-12T01:38:47;24.30;73.70
36774;DHT22;22730;51.980;5.934;2023-08-12T01:41:16;24.10;74.20
36774;DHT22;22730;51.980;5.934;2023-08-12T01:43:44;24.10;74.80
36774;DHT22;22730;51.980;5.934;2023-08-12T01:46:10;24.30;73.80
36774;DHT22;22730;51.980;5.934;2023-08-12T01:48:36;24.40;73.00
36774;DHT22;22730;51.980;5.934;2023-08-12T01:51:02;24.60;72.50
36774;DHT22;22730;51.980;5.934;2023-08-12T01:53:28;24.70;72.30
36774;DHT22;22730;51.980;5.934;2023-08-12T01:55:54;24.80;72.20
36774;DHT22;22730;51.980;5.934;2023-08-12T01:58:20;24.80;72.20
36774;DHT22;22730;51.980;5.934;2023-08-12T02:00:46;24.80;72.00
36774;DHT22;22730;51.980;5.934;2023-08-12T02:03:11;24.90;72.00
36774;DHT22;22730;51.980;5.934;2023-08-12T02:05:37;24.90;72.00
36774;DHT22;22730;51.980;5.934;2023-08-12T02:08:06;24.90;72.00
36774;DHT22;22730;51.980;5.934;2023-08-12T02:10:34;25.00;72.10
36774;DHT22;22730;51.980;5.934;2023-08-12T02:13:00;25.00;71.70
36774;DHT22;22730;51.980;5.934;2023-08-12T02:15:26;25.10;71.30
36774;DHT22;22730;51.980;5.934;2023-08-12T02:17:52;25.20;71.00
36774;DHT22;22730;51.980;5.934;2023-08-12T02:20:17;25.30;70.80
36774;DHT22;22730;51.980;5.934;2023-08-12T02:22:44;25.30;70.80
36774;DHT22;22730;51.980;5.934;2023-08-12T02:25:10;25.20;71.20
36774;DHT22;22730;51.980;5.934;2023-08-12T02:27:35;25.10;71.50
36774;DHT22;22730;51.980;5.934;2023-08-12T02:30:01;25.00;72.10
36774;DHT22;22730;51.980;5.934;2023-08-12T02:32:30;24.80;72.50
36774;DHT22;22730;51.980;5.934;2023-08-12T02:34:56;24.70;72.70
36774;DHT22;22730;51.980;5.934;2023-08-12T02:37:22;24.70;72.80
36774;DHT22;22730;51.980;5.934;2023-08-12T02:39:47;24.70;72.90
36774;DHT22;22730;51.980;5.934;2023-08-12T02:42:13;24.60;73.40
36774;DHT22;22730;51.980;5.934;2023-08-12T02:44:39;24.40;73.90
36774;DHT22;22730;51.980;5.934;2023-08-12T02:47:05;24.30;74.20
36774;DHT22;22730;51.980;5.934;2023-08-12T02:49:31;24.30;74.00
36774;DHT22;22730;51.980;5.934;2023-08-12T02:51:56;24.40;73.80
36774;DHT22;22730;51.980;5.934;2023-08-12T02:54:22;24.40;73.90
36774;DHT22;22730;51.980;5.934;2023-08-12T02:56:50;24.30;74.20
36774;DHT22;22730;51.980;5.934;2023-08-12T02:59:16;24.30;74.40
36774;DHT22;22730;51.980;5.934;2023-08-12T03:01:42;24.20;74.60
36774;DHT22;22730;51.980;5.934;2023-08-12T03:04:08;24.10;75.00
36774;DHT22;22730;51.980;5.934;2023-08-12T03:06:34;24.00;75.10
36774;DHT22;22730;51.980;5.934;2023-08-12T03:08:59;23.90;75.30
36774;DHT22;22730;51.980;5.934;2023-08-12T03:11:25;23.90;75.70
36774;DHT22;22730;51.980;5.934;2023-08-12T03:13:53;23.80;76.10
36774;DHT22;22730;51.980;5.934;2023-08-12T03:16:19;23.70;76.40
36774;DHT22;22730;51.980;5.934;2023-08-12T03:18:46;23.70;76.40
36774;DHT22;22730;51.980;5.934;2023-08-12T03:21:12;23.70;76.40
36774;DHT22;22730;51.980;5.934;2023-08-12T03:23:39;23.60;76.80
36774;DHT22;22730;51.980;5.934;2023-08-12T03:26:07;23.60;76.90
36774;DHT22;22730;51.980;5.934;2023-08-12T03:28:33;23.70;76.50
36774;DHT22;22730;51.980;5.934;2023-08-12T03:30:59;23.80;76.20
36774;DHT22;22730;51.980;5.934;2023-08-12T03:33:25;23.80;76.50
36774;DHT22;22730;51.980;5.934;2023-08-12T03:35:52;23.70;76.60
36774;DHT22;22730;51.980;5.934;2023-08-12T03:38:18;23.70;76.80
36774;DHT22;22730;51.980;5.934;2023-08-12T03:40:45;23.70;76.70
36774;DHT22;22730;51.980;5.934;2023-08-12T03:43:13;23.70;76.70
36774;DHT22;22730;51.980;5.934;2023-08-12T03:45:42;23.70;76.80
36774;DHT22;22730;51.980;5.934;2023-08-12T03:48:09;23.70;76.80
36774;DHT22;22730;51.980;5.934;2023-08-12T03:50:36;23.70;76.80
36774;DHT22;22730;51.980;5.934;2023-08-12T03:53:02;23.80;76.50
36774;DHT22;22730;51.980;5.934;2023-08-12T03:55:35;23.90;76.30
36774;DHT22;22730;51.980;5.934;2023-08-12T03:58:01;23.90;76.40
36774;DHT22;22730;51.980;5.934;2023-08-12T04:00:29;23.80;76.90
36774;DHT22;22730;51.980;5.934;2023-08-12T04:02:58;23.80;76.90
36774;DHT22;22730;51.980;5.934;2023-08-12T04:05:24;23.90;76.60
36774;DHT22;22730;51.980;5.934;2023-08-12T04:07:50;23.90;76.10
36774;DHT22;22730;51.980;5.934;2023-08-12T04:10:16;24.10;75.90
36774;DHT22;22730;51.980;5.934;2023-08-12T04:12:41;24.20;75.50
36774;DHT22;22730;51.980;5.934;2023-08-12T04:15:08;24.30;75.20
36774;DHT22;22730;51.980;5.934;2023-08-12T04:17:34;24.30;75.50
36774;DHT22;22730;51.980;5.934;2023-08-12T04:20:02;24.20;75.70
36774;DHT22;22730;51.980;5.934;2023-08-12T04:22:31;24.20;75.60
36774;DHT22;22730;51.980;5.934;2023-08-12T04:24:57;24.20;75.50
36774;DHT22;22730;51.980;5.934;2023-08-12T04:27:22;24.30;75.40
36774;DHT22;22730;51.980;5.934;2023-08-12T04:29:48;24.30;75.20
36774;DHT22;22730;51.980;5.934;2023-08-12T04:32:14;24.40;75.30
36774;DHT22;22730;51.980;5.934;2023-08-12T04:34:40;24.30;75.30
36774;DHT22;22730;51.980;5.934;2023-08-12T04:37:06;24.30;75.40
36774;DHT22;22730;51.980;5.934;2023-08-12T04:39:32;24.20;75.50
36774;DHT22;22730;51.980;5.934;2023-08-12T04:41:59;24.20;75.80
36774;DHT22;22730;51.980;5.934;2023-08-12T04:44:25;24.10;76.10
36774;DHT22;22730;51.980;5.934;2023-08-12T04:46:51;24.00;76.40
36774;DHT22;22730;51.980;5.934;2023-08-12T04:49:18;23.90;76.60
36774;DHT22;22730;51.980;5.934;2023-08-12T04:51:43;23.80;77.00
36774;DHT22;22730;51.980;5.934;2023-08-12T04:54:09;23.80;77.20
36774;DHT22;22730;51.980;5.934;2023-08-12T04:56:35;23.70;77.50
36774;DHT22;22730;51.980;5.934;2023-08-12T04:59:01;23.50;77.90
36774;DHT22;22730;51.980;5.934;2023-08-12T05:01:28;23.50;78.20
36774;DHT22;22730;51.980;5.934;2023-08-12T05:03:54;23.50;78.20
36774;DHT22;22730;51.980;5.934;2023-08-12T05:06:21;23.60;78.00
36774;DHT22;22730;51.980;5.934;2023-08-12T05:08:46;23.50;78.10
36774;DHT22;22730;51.980;5.934;2023-08-12T05:11:12;23.50;78.30
36774;DHT22;22730;51.980;5.934;2023-08-12T05:13:38;23.50;78.40
36774;DHT22;22730;51.980;5.934;2023-08-12T05:16:04;23.50;78.30
36774;DHT22;22730;51.980;5.934;2023-08-12T05:18:30;23.50;78.20
36774;DHT22;22730;51.980;5.934;2023-08-12T05:20:56;23.60;78.30
36774;DHT22;22730;51.980;5.934;2023-08-12T05:23:23;23.50;78.60
36774;DHT22;22730;51.980;5.934;2023-08-12T05:25:49;23.40;79.30
36774;DHT22;22730;51.980;5.934;2023-08-12T05:28:14;23.30;79.50
36774;DHT22;22730;51.980;5.934;2023-08-12T05:30:40;23.30;79.60
36774;DHT22;22730;51.980;5.934;2023-08-12T05:33:06;23.30;79.70
36774;DHT22;22730;51.980;5.934;2023-08-12T05:35:35;23.30;79.90
36774;DHT22;22730;51.980;5.934;2023-08-12T05:38:02;23.20;80.40
36774;DHT22;22730;51.980;5.934;2023-08-12T05:40:28;23.10;81.00
36774;DHT22;22730;51.980;5.934;2023-08-12T05:42:53;23.10;81.30
36774;DHT22;22730;51.980;5.934;2023-08-12T05:45:19;23.00;81.50
36774;DHT22;22730;51.980;5.934;2023-08-12T05:47:45;23.00;81.80
36774;DHT22;22730;51.980;5.934;2023-08-12T05:50:11;23.00;81.90
36774;DHT22;22730;51.980;5.934;2023-08-12T05:52:36;22.90;82.50
36774;DHT22;22730;51.980;5.934;2023-08-12T05:55:02;22.90;82.60
36774;DHT22;22730;51.980;5.934;2023-08-12T05:57:28;22.90;82.50
36774;DHT22;22730;51.980;5.934;2023-08-12T05:59:55;22.90;82.80
36774;DHT22;22730;51.980;5.934;2023-08-12T06:02:20;22.90;82.70
36774;DHT22;22730;51.980;5.934;2023-08-12T06:04:46;22.90;82.50
36774;DHT22;22730;51.980;5.934;2023-08-12T06:07:12;22.90;82.80
36774;DHT22;22730;51.980;5.934;2023-08-12T06:09:38;22.80;82.90
36774;DHT22;22730;51.980;5.934;2023-08-12T06:12:04;22.80;83.50
36774;DHT22;22730;51.980;5.934;2023-08-12T06:14:30;22.70;83.70
36774;DHT22;22730;51.980;5.934;2023-08-12T06:16:55;22.60;84.00
36774;DHT22;22730;51.980;5.934;2023-08-12T06:19:21;22.50;84.60
36774;DHT22;22730;51.980;5.934;2023-08-12T06:21:47;22.50;84.40
36774;DHT22;22730;51.980;5.934;2023-08-12T06:24:13;22.60;84.40
36774;DHT22;22730;51.980;5.934;2023-08-12T06:26:38;22.60;84.00
36774;DHT22;22730;51.980;5.934;2023-08-12T06:29:04;22.60;83.80
36774;DHT22;22730;51.980;5.934;2023-08-12T06:31:30;22.80;83.50
36774;DHT22;22730;51.980;5.934;2023-08-12T06:33:56;22.80;83.40
36774;DHT22;22730;51.980;5.934;2023-08-12T06:36:22;22.70;83.70
36774;DHT22;22730;51.980;5.934;2023-08-12T06:38:48;22.60;84.10
36774;DHT22;22730;51.980;5.934;2023-08-12T06:41:14;22.60;84.10
36774;DHT22;22730;51.980;5.934;2023-08-12T06:43:40;22.90;83.40
36774;DHT22;22730;51.980;5.934;2023-08-12T06:46:06;23.00;82.80
36774;DHT22;22730;51.980;5.934;2023-08-12T06:48:31;23.10;82.60
36774;DHT22;22730;51.980;5.934;2023-08-12T06:50:57;23.20;82.20
36774;DHT22;22730;51.980;5.934;2023-08-12T06:53:25;23.30;82.00
36774;DHT22;22730;51.980;5.934;2023-08-12T06:55:51;23.30;81.60
36774;DHT22;22730;51.980;5.934;2023-08-12T06:58:17;23.50;81.20
36774;DHT22;22730;51.980;5.934;2023-08-12T07:00:43;23.70;80.50
36774;DHT22;22730;51.980;5.934;2023-08-12T07:03:09;23.90;79.80
36774;DHT22;22730;51.980;5.934;2023-08-12T07:05:35;24.10;79.40
36774;DHT22;22730;51.980;5.934;2023-08-12T07:08:00;23.90;79.80
36774;DHT22;22730;51.980;5.934;2023-08-12T07:10:26;23.70;80.10
36774;DHT22;22730;51.980;5.934;2023-08-12T07:12:52;23.50;80.50
36774;DHT22;22730;51.980;5.934;2023-08-12T07:15:18;23.40;80.90
36774;DHT22;22730;51.980;5.934;2023-08-12T07:17:44;23.20;81.20
36774;DHT22;22730;51.980;5.934;2023-08-12T07:20:10;23.10;81.40
36774;DHT22;22730;51.980;5.934;2023-08-12T07:22:35;23.10;81.60
36774;DHT22;22730;51.980;5.934;2023-08-12T07:25:01;23.00;82.00
36774;DHT22;22730;51.980;5.934;2023-08-12T07:27:27;22.80;82.50
36774;DHT22;22730;51.980;5.934;2023-08-12T07:29:53;22.70;82.70
36774;DHT22;22730;51.980;5.934;2023-08-12T07:32:20;22.70;82.90
36774;DHT22;22730;51.980;5.934;2023-08-12T07:34:46;22.60;82.90
36774;DHT22;22730;51.980;5.934;2023-08-12T07:37:12;22.70;82.70
36774;DHT22;22730;51.980;5.934;2023-08-12T07:39:38;22.70;82.60
36774;DHT22;22730;51.980;5.934;2023-08-12T07:42:03;22.70;82.70
36774;DHT22;22730;51.980;5.934;2023-08-12T07:44:30;22.70;82.70
36774;DHT22;22730;51.980;5.934;2023-08-12T07:46:55;22.70;83.10
36774;DHT22;22730;51.980;5.934;2023-08-12T07:49:21;22.60;83.30
36774;DHT22;22730;51.980;5.934;2023-08-12T07:51:47;22.50;83.50
36774;DHT22;22730;51.980;5.934;2023-08-12T07:54:13;22.50;83.70
36774;DHT22;22730;51.980;5.934;2023-08-12T07:56:39;22.50;83.60
36774;DHT22;22730;51.980;5.934;2023-08-12T07:59:06;22.60;83.50
36774;DHT22;22730;51.980;5.934;2023-08-12T08:01:31;22.50;83.80
36774;DHT22;22730;51.980;5.934;2023-08-12T08:03:57;22.50;83.70
36774;DHT22;22730;51.980;5.934;2023-08-12T08:06:23;22.60;83.40
36774;DHT22;22730;51.980;5.934;2023-08-12T08:08:49;22.50;83.70
36774;DHT22;22730;51.980;5.934;2023-08-12T08:11:15;22.40;84.10
36774;DHT22;22730;51.980;5.934;2023-08-12T08:13:41;22.30;84.60
36774;DHT22;22730;51.980;5.934;2023-08-12T08:16:07;22.20;85.00
36774;DHT22;22730;51.980;5.934;2023-08-12T08:18:32;22.20;85.20
36774;DHT22;22730;51.980;5.934;2023-08-12T08:20:58;22.20;85.30
36774;DHT22;22730;51.980;5.934;2023-08-12T08:23:24;22.20;85.30
36774;DHT22;22730;51.980;5.934;2023-08-12T08:25:50;22.20;85.10
36774;DHT22;22730;51.980;5.934;2023-08-12T08:28:16;22.20;85.30
36774;DHT22;22730;51.980;5.934;2023-08-12T08:30:41;22.20;85.40
36774;DHT22;22730;51.980;5.934;2023-08-12T08:33:08;22.20;85.60
36774;DHT22;22730;51.980;5.934;2023-08-12T08:35:34;22.30;85.30
36774;DHT22;22730;51.980;5.934;2023-08-12T08:38:00;22.40;85.10
36774;DHT22;22730;51.980;5.934;2023-08-12T08:40:26;22.40;85.20
36774;DHT22;22730;51.980;5.934;2023-08-12T08:42:53;22.40;85.30
36774;DHT22;22730;51.980;5.934;2023-08-12T08:45:21;22.50;85.30
36774;DHT22;22730;51.980;5.934;2023-08-12T08:47:48;22.50;85.30
36774;DHT22;22730;51.980;5.934;2023-08-12T08:50:14;22.50;85.20
36774;DHT22;22730;51.980;5.934;2023-08-12T08:52:40;22.50;85.30
36774;DHT22;22730;51.980;5.934;2023-08-12T08:55:08;22.60;85.40
36774;DHT22;22730;51.980;5.934;2023-08-12T08:57:36;22.50;85.60
36774;DHT22;22730;51.980;5.934;2023-08-12T09:00:03;22.60;85.70
36774;DHT22;22730;51.980;5.934;2023-08-12T09:02:33;22.70;85.40
36774;DHT22;22730;51.980;5.934;2023-08-12T09:05:01;22.80;85.30
36774;DHT22;22730;51.980;5.934;2023-08-12T09:07:27;22.90;84.90
36774;DHT22;22730;51.980;5.934;2023-08-12T09:09:54;23.00;84.60
36774;DHT22;22730;51.980;5.934;2023-08-12T09:12:22;23.10;84.30
36774;DHT22;22730;51.980;5.934;2023-08-12T09:14:50;23.20;84.10
36774;DHT22;22730;51.980;5.934;2023-08-12T09:17:15;23.20;84.00
36774;DHT22;22730;51.980;5.934;2023-08-12T09:19:41;23.20;84.20
36774;DHT22;22730;51.980;5.934;2023-08-12T09:22:08;23.20;84.20
36774;DHT22;22730;51.980;5.934;2023-08-12T09:24:36;23.20;84.30
36774;DHT22;22730;51.980;5.934;2023-08-12T09:27:02;23.30;84.00
36774;DHT22;22730;51.980;5.934;2023-08-12T09:29:33;23.50;83.60
36774;DHT22;22730;51.980;5.934;2023-08-12T09:32:12;23.60;83.10
36774;DHT22;22730;51.980;5.934;2023-08-12T09:34:46;23.70;83.10
36774;DHT22;22730;51.980;5.934;2023-08-12T09:37:13;23.80;82.90
36774;DHT22;22730;51.980;5.934;2023-08-12T09:39:40;23.90;82.70
36774;DHT22;22730;51.980;5.934;2023-08-12T09:42:06;24.00;82.40
36774;DHT22;22730;51.980;5.934;2023-08-12T09:44:40;24.10;82.30
36774;DHT22;22730;51.980;5.934;2023-08-12T09:47:06;24.20;82.60
36774;DHT22;22730;51.980;5.934;2023-08-12T09:49:34;24.20;81.60
36774;DHT22;22730;51.980;5.934;2023-08-12T09:52:01;24.20;81.20
36774;DHT22;22730;51.980;5.934;2023-08-12T09:54:28;24.20;81.00
36774;DHT22;22730;51.980;5.934;2023-08-12T09:56:58;24.40;80.80
36774;DHT22;22730;51.980;5.934;2023-08-12T09:59:29;24.40;80.50
36774;DHT22;22730;51.980;5.934;2023-08-12T10:01:56;24.40;80.20
36774;DHT22;22730;51.980;5.934;2023-08-12T10:04:23;24.40;80.20
36774;DHT22;22730;51.980;5.934;2023-08-12T10:06:52;24.40;79.80
36774;DHT22;22730;51.980;5.934;2023-08-12T10:09:18;24.50;79.50
36774;DHT22;22730;51.980;5.934;2023-08-12T10:11:45;24.50;79.60
36774;DHT22;22730;51.980;5.934;2023-08-12T10:14:13;24.50;79.40
36774;DHT22;22730;51.980;5.934;2023-08-12T10:16:45;24.50;79.30
36774;DHT22;22730;51.980;5.934;2023-08-12T10:19:11;24.60;79.20
36774;DHT22;22730;51.980;5.934;2023-08-12T10:21:37;24.50;79.20
36774;DHT22;22730;51.980;5.934;2023-08-12T10:24:05;24.60;79.10
36774;DHT22;22730;51.980;5.934;2023-08-12T10:26:32;24.70;79.00
36774;DHT22;22730;51.980;5.934;2023-08-12T10:28:59;24.80;78.80
36774;DHT22;22730;51.980;5.934;2023-08-12T10:31:28;24.80;78.80
36774;DHT22;22730;51.980;5.934;2023-08-12T10:33:56;24.80;78.60
36774;DHT22;22730;51.980;5.934;2023-08-12T10:36:22;24.80;78.40
36774;DHT22;22730;51.980;5.934;2023-08-12T10:38:48;24.70;78.80
36774;DHT22;22730;51.980;5.934;2023-08-12T10:41:24;24.60;78.10
36774;DHT22;22730;51.980;5.934;2023-08-12T10:44:01;24.60;77.90
36774;DHT22;22730;51.980;5.934;2023-08-12T10:46:34;24.60;77.80
36774;DHT22;22730;51.980;5.934;2023-08-12T10:49:06;24.50;77.70
36774;DHT22;22730;51.980;5.934;2023-08-12T10:51:52;24.50;77.50
36774;DHT22;22730;51.980;5.934;2023-08-12T10:54:24;24.50;77.20
36774;DHT22;22730;51.980;5.934;2023-08-12T11:04:52;24.60;76.10
36774;DHT22;22730;51.980;5.934;2023-08-12T11:07:21;24.60;75.70
36774;DHT22;22730;51.980;5.934;2023-08-12T11:09:52;24.70;75.50
36774;DHT22;22730;51.980;5.934;2023-08-12T11:12:28;24.70;75.30
36774;DHT22;22730;51.980;5.934;2023-08-12T11:14:54;24.80;75.30
36774;DHT22;22730;51.980;5.934;2023-08-12T11:17:20;24.90;74.90
36774;DHT22;22730;51.980;5.934;2023-08-12T11:19:53;24.90;74.50
36774;DHT22;22730;51.980;5.934;2023-08-12T11:22:20;24.90;74.00
36774;DHT22;22730;51.980;5.934;2023-08-12T11:24:47;24.90;74.00
36774;DHT22;22730;51.980;5.934;2023-08-12T11:27:14;25.00;73.70
36774;DHT22;22730;51.980;5.934;2023-08-12T11:29:39;25.10;73.30
36774;DHT22;22730;51.980;5.934;2023-08-12T11:32:06;25.20;72.90
36774;DHT22;22730;51.980;5.934;2023-08-12T11:34:32;25.30;72.40
36774;DHT22;22730;51.980;5.934;2023-08-12T11:36:58;25.40;71.80
36774;DHT22;22730;51.980;5.934;2023-08-12T11:39:24;25.50;71.60
36774;DHT22;22730;51.980;5.934;2023-08-12T11:41:50;25.60;71.10
36774;DHT22;22730;51.980;5.934;2023-08-12T11:44:16;25.70;70.80
36774;DHT22;22730;51.980;5.934;2023-08-12T11:46:42;25.80;70.20
36774;DHT22;22730;51.980;5.934;2023-08-12T11:49:08;25.90;70.00
36774;DHT22;22730;51.980;5.934;2023-08-12T11:51:35;25.90;69.60
36774;DHT22;22730;51.980;5.934;2023-08-12T11:54:01;25.90;69.40
36774;DHT22;22730;51.980;5.934;2023-08-12T11:56:27;25.90;69.10
36774;DHT22;22730;51.980;5.934;2023-08-12T11:58:53;26.00;68.90
36774;DHT22;22730;51.980;5.934;2023-08-12T12:01:21;26.00;68.70
36774;DHT22;22730;51.980;5.934;2023-08-12T12:03:54;26.00;68.30
36774;DHT22;22730;51.980;5.934;2023-08-12T12:06:33;26.10;67.50
36774;DHT22;22730;51.980;5.934;2023-08-12T12:09:06;26.10;67.00
36774;DHT22;22730;51.980;5.934;2023-08-12T12:11:38;26.00;66.60
36774;DHT22;22730;51.980;5.934;2023-08-12T12:14:06;25.90;66.20
36774;DHT22;22730;51.980;5.934;2023-08-12T12:16:44;26.00;66.10
36774;DHT22;22730;51.980;5.934;2023-08-12T12:19:22;26.10;66.00
36774;DHT22;22730;51.980;5.934;2023-08-12T12:21:50;26.20;65.70
36774;DHT22;22730;51.980;5.934;2023-08-12T12:24:17;26.20;65.50
36774;DHT22;22730;51.980;5.934;2023-08-12T12:26:46;26.30;65.40
36774;DHT22;22730;51.980;5.934;2023-08-12T12:29:12;26.20;65.30
36774;DHT22;22730;51.980;5.934;2023-08-12T12:31:39;26.10;65.20
36774;DHT22;22730;51.980;5.934;2023-08-12T12:34:06;26.10;65.20
36774;DHT22;22730;51.980;5.934;2023-08-12T12:36:37;26.10;64.50
36774;DHT22;22730;51.980;5.934;2023-08-12T12:39:04;26.00;64.50
36774;DHT22;22730;51.980;5.934;2023-08-12T12:41:30;26.00;64.20
36774;DHT22;22730;51.980;5.934;2023-08-12T12:43:56;26.00;63.90
36774;DHT22;22730;51.980;5.934;2023-08-12T12:46:22;25.90;63.50
36774;DHT22;22730;51.980;5.934;2023-08-12T12:48:48;25.90;63.30
36774;DHT22;22730;51.980;5.934;2023-08-12T12:51:14;25.90;63.30
36774;DHT22;22730;51.980;5.934;2023-08-12T12:53:40;26.00;63.10
36774;DHT22;22730;51.980;5.934;2023-08-12T12:56:06;26.10;62.90
36774;DHT22;22730;51.980;5.934;2023-08-12T12:58:33;26.20;62.70
36774;DHT22;22730;51.980;5.934;2023-08-12T13:01:00;26.20;62.80
36774;DHT22;22730;51.980;5.934;2023-08-12T13:03:26;26.20;62.90
36774;DHT22;22730;51.980;5.934;2023-08-12T13:05:52;26.10;62.80
36774;DHT22;22730;51.980;5.934;2023-08-12T13:08:18;26.20;62.50
36774;DHT22;22730;51.980;5.934;2023-08-12T13:10:44;26.10;62.50
36774;DHT22;22730;51.980;5.934;2023-08-12T13:13:12;26.10;62.70
36774;DHT22;22730;51.980;5.934;2023-08-12T13:15:38;26.10;62.50
36774;DHT22;22730;51.980;5.934;2023-08-12T13:18:04;26.10;62.40
36774;DHT22;22730;51.980;5.934;2023-08-12T13:20:30;26.20;62.20
36774;DHT22;22730;51.980;5.934;2023-08-12T13:22:56;26.10;62.40
36774;DHT22;22730;51.980;5.934;2023-08-12T13:25:21;26.20;62.40
36774;DHT22;22730;51.980;5.934;2023-08-12T13:27:47;26.10;62.30
36774;DHT22;22730;51.980;5.934;2023-08-12T13:30:13;26.10;62.30
36774;DHT22;22730;51.980;5.934;2023-08-12T13:32:39;26.20;62.00
36774;DHT22;22730;51.980;5.934;2023-08-12T13:35:05;26.20;62.00
36774;DHT22;22730;51.980;5.934;2023-08-12T13:37:34;26.20;62.20
36774;DHT22;22730;51.980;5.934;2023-08-12T13:40:00;26.20;62.00
36774;DHT22;22730;51.980;5.934;2023-08-12T13:42:26;26.20;61.90
36774;DHT22;22730;51.980;5.934;2023-08-12T13:44:52;26.10;61.90
36774;DHT22;22730;51.980;5.934;2023-08-12T13:47:18;26.10;62.00
36774;DHT22;22730;51.980;5.934;2023-08-12T13:49:44;26.10;61.80
36774;DHT22;22730;51.980;5.934;2023-08-12T13:52:10;26.10;61.50
36774;DHT22;22730;51.980;5.934;2023-08-12T13:54:35;26.00;61.60
36774;DHT22;22730;51.980;5.934;2023-08-12T13:57:02;26.00;61.10
36774;DHT22;22730;51.980;5.934;2023-08-12T13:59:29;26.10;59.90
36774;DHT22;22730;51.980;5.934;2023-08-12T14:01:55;26.20;59.50
36774;DHT22;22730;51.980;5.934;2023-08-12T14:04:21;26.30;59.70
36774;DHT22;22730;51.980;5.934;2023-08-12T14:06:46;26.30;59.40
36774;DHT22;22730;51.980;5.934;2023-08-12T14:09:12;26.40;59.50
36774;DHT22;22730;51.980;5.934;2023-08-12T14:11:42;26.20;60.00
36774;DHT22;22730;51.980;5.934;2023-08-12T14:14:08;26.10;59.90
36774;DHT22;22730;51.980;5.934;2023-08-12T14:16:35;26.00;59.70
36774;DHT22;22730;51.980;5.934;2023-08-12T14:19:00;25.90;59.20
36774;DHT22;22730;51.980;5.934;2023-08-12T14:21:26;25.80;59.00
36774;DHT22;22730;51.980;5.934;2023-08-12T14:23:52;25.80;59.00
36774;DHT22;22730;51.980;5.934;2023-08-12T14:26:18;25.80;58.80
36774;DHT22;22730;51.980;5.934;2023-08-12T14:28:43;25.90;58.60
36774;DHT22;22730;51.980;5.934;2023-08-12T14:31:09;25.90;58.30
36774;DHT22;22730;51.980;5.934;2023-08-12T14:33:35;25.80;58.40
36774;DHT22;22730;51.980;5.934;2023-08-12T14:36:03;25.80;58.40
36774;DHT22;22730;51.980;5.934;2023-08-12T14:38:29;25.80;58.10
36774;DHT22;22730;51.980;5.934;2023-08-12T14:40:55;25.60;58.10
36774;DHT22;22730;51.980;5.934;2023-08-12T14:43:21;25.70;58.10
36774;DHT22;22730;51.980;5.934;2023-08-12T14:45:47;25.70;57.50
36774;DHT22;22730;51.980;5.934;2023-08-12T14:48:13;25.80;57.20
36774;DHT22;22730;51.980;5.934;2023-08-12T14:50:40;25.80;57.00
36774;DHT22;22730;51.980;5.934;2023-08-12T14:53:07;25.90;57.40
36774;DHT22;22730;51.980;5.934;2023-08-12T14:55:33;25.80;57.30
36774;DHT22;22730;51.980;5.934;2023-08-12T14:57:59;25.70;57.60
36774;DHT22;22730;51.980;5.934;2023-08-12T15:00:24;25.70;57.30
36774;DHT22;22730;51.980;5.934;2023-08-12T15:02:50;25.70;57.00
36774;DHT22;22730;51.980;5.934;2023-08-12T15:05:17;25.70;56.80
36774;DHT22;22730;51.980;5.934;2023-08-12T15:07:43;25.70;56.60
36774;DHT22;22730;51.980;5.934;2023-08-12T15:10:09;25.60;56.70
36774;DHT22;22730;51.980;5.934;2023-08-12T15:12:35;25.60;56.60
36774;DHT22;22730;51.980;5.934;2023-08-12T15:15:01;25.50;56.10
36774;DHT22;22730;51.980;5.934;2023-08-12T15:17:27;25.50;55.90
36774;DHT22;22730;51.980;5.934;2023-08-12T15:19:53;25.50;55.90
36774;DHT22;22730;51.980;5.934;2023-08-12T15:22:19;25.60;55.80
36774;DHT22;22730;51.980;5.934;2023-08-12T15:24:45;25.60;55.80
36774;DHT22;22730;51.980;5.934;2023-08-12T15:27:11;25.70;55.80
36774;DHT22;22730;51.980;5.934;2023-08-12T15:29:37;25.80;55.80
36774;DHT22;22730;51.980;5.934;2023-08-12T15:32:02;25.70;56.00
36774;DHT22;22730;51.980;5.934;2023-08-12T15:34:29;25.70;56.10
36774;DHT22;22730;51.980;5.934;2023-08-12T15:36:55;25.60;56.10